Terminal Aerodrome Forecast
Issued by NWS

Home | Current Version | Previous Version | Graphics & Text | Print | Product List | Glossary On
Versions: 1 2 3 4 5 6 7 8 9 10 11 12 13 14 15 16 17 18 19 20 21 22 23 24 25 26 27 28 29 30 31 32 33 34 35 36 37 38 39 40 41
000
FTUS45 KGGW 262300
TAFOLF
TAF
KOLF 262320Z 2700/2724 08010KT P6SM VCSH OVC018
     FM270400 08007KT 5SM -SN OVC012
     FM271200 11010KT 3SM -FZRASN OVC025
     FM271800 VRB05KT P6SM VCSH OVC015=

USA.gov is the U.S. government's official web portal to all federal, state and local government web resources and services.